sensor_id;sensor_type;location;lat;lon;timestamp;P1;durP1;ratioP1;P2;durP2;ratioP2
84521;SDS011;74758;50.066;20.008;2024-03-23T00:52:50;45.40;;;24.50;;
84521;SDS011;74758;50.066;20.008;2024-03-23T00:54:53;53.00;;;26.40;;
84521;SDS011;74758;50.066;20.008;2024-03-23T00:55:54;47.90;;;26.80;;
84521;SDS011;74758;50.066;20.008;2024-03-23T00:56:56;45.40;;;25.30;;
84521;SDS011;74758;50.066;20.008;2024-03-23T00:57:57;50.60;;;26.50;;
84521;SDS011;74758;50.066;20.008;2024-03-23T00:58:59;45.90;;;25.90;;
84521;SDS011;74758;50.066;20.008;2024-03-23T01:00:00;47.70;;;25.60;;
84521;SDS011;74758;50.066;20.008;2024-03-23T01:01:02;50.50;;;26.70;;
84521;SDS011;74758;50.066;20.008;2024-03-23T01:02:04;48.90;;;27.40;;
84521;SDS011;74758;50.066;20.008;2024-03-23T01:03:06;45.00;;;25.90;;
84521;SDS011;74758;50.066;20.008;2024-03-23T01:04:07;48.00;;;26.90;;
84521;SDS011;74758;50.066;20.008;2024-03-23T01:05:09;47.60;;;26.00;;
84521;SDS011;74758;50.066;20.008;2024-03-23T01:06:10;48.70;;;25.90;;
84521;SDS011;74758;50.066;20.008;2024-03-23T01:07:11;43.70;;;24.80;;
84521;SDS011;74758;50.066;20.008;2024-03-23T01:08:13;52.10;;;28.00;;
84521;SDS011;74758;50.066;20.008;2024-03-23T01:09:14;44.80;;;26.10;;
84521;SDS011;74758;50.066;20.008;2024-03-23T01:10:16;44.60;;;25.90;;
84521;SDS011;74758;50.066;20.008;2024-03-23T01:11:18;47.70;;;26.20;;
84521;SDS011;74758;50.066;20.008;2024-03-23T01:12:19;47.50;;;26.00;;
84521;SDS011;74758;50.066;20.008;2024-03-23T01:13:21;48.30;;;25.20;;
84521;SDS011;74758;50.066;20.008;2024-03-23T01:14:23;49.90;;;27.30;;
84521;SDS011;74758;50.066;20.008;2024-03-23T01:15:25;50.20;;;26.20;;
84521;SDS011;74758;50.066;20.008;2024-03-23T01:16:26;44.90;;;25.80;;
84521;SDS011;74758;50.066;20.008;2024-03-23T01:17:28;50.50;;;26.30;;
84521;SDS011;74758;50.066;20.008;2024-03-23T01:18:29;44.40;;;24.40;;
84521;SDS011;74758;50.066;20.008;2024-03-23T01:19:30;43.90;;;25.70;;
84521;SDS011;74758;50.066;20.008;2024-03-23T01:20:32;45.30;;;24.80;;
84521;SDS011;74758;50.066;20.008;2024-03-23T01:21:33;40.90;;;25.20;;
84521;SDS011;74758;50.066;20.008;2024-03-23T01:22:35;44.20;;;25.30;;
84521;SDS011;74758;50.066;20.008;2024-03-23T01:23:36;51.90;;;27.90;;
84521;SDS011;74758;50.066;20.008;2024-03-23T01:24:38;46.80;;;25.30;;
84521;SDS011;74758;50.066;20.008;2024-03-23T01:25:39;46.80;;;25.60;;
84521;SDS011;74758;50.066;20.008;2024-03-23T01:26:41;47.50;;;25.00;;
84521;SDS011;74758;50.066;20.008;2024-03-23T01:27:42;49.60;;;25.60;;
84521;SDS011;74758;50.066;20.008;2024-03-23T01:28:44;44.20;;;24.50;;
84521;SDS011;74758;50.066;20.008;2024-03-23T01:29:45;44.50;;;25.60;;
84521;SDS011;74758;50.066;20.008;2024-03-23T01:30:47;48.30;;;27.60;;
84521;SDS011;74758;50.066;20.008;2024-03-23T01:31:49;43.90;;;25.20;;
84521;SDS011;74758;50.066;20.008;2024-03-23T01:32:51;48.40;;;27.20;;
84521;SDS011;74758;50.066;20.008;2024-03-23T01:33:52;44.50;;;25.80;;
84521;SDS011;74758;50.066;20.008;2024-03-23T01:34:54;49.20;;;24.90;;
84521;SDS011;74758;50.066;20.008;2024-03-23T01:35:55;44.50;;;25.00;;
84521;SDS011;74758;50.066;20.008;2024-03-23T01:36:56;49.50;;;27.00;;
84521;SDS011;74758;50.066;20.008;2024-03-23T01:37:58;48.60;;;26.10;;
84521;SDS011;74758;50.066;20.008;2024-03-23T01:38:59;51.30;;;26.80;;
84521;SDS011;74758;50.066;20.008;2024-03-23T01:40:01;56.00;;;26.80;;
84521;SDS011;74758;50.066;20.008;2024-03-23T01:41:02;45.40;;;25.70;;
84521;SDS011;74758;50.066;20.008;2024-03-23T01:42:04;49.50;;;26.10;;
84521;SDS011;74758;50.066;20.008;2024-03-23T01:43:06;52.50;;;26.00;;
84521;SDS011;74758;50.066;20.008;2024-03-23T01:44:09;49.20;;;24.60;;
84521;SDS011;74758;50.066;20.008;2024-03-23T01:45:12;43.00;;;25.70;;
84521;SDS011;74758;50.066;20.008;2024-03-23T01:46:13;50.10;;;25.60;;
84521;SDS011;74758;50.066;20.008;2024-03-23T01:47:14;48.10;;;26.60;;
84521;SDS011;74758;50.066;20.008;2024-03-23T01:48:16;52.90;;;26.80;;
84521;SDS011;74758;50.066;20.008;2024-03-23T01:49:17;46.30;;;26.70;;
84521;SDS011;74758;50.066;20.008;2024-03-23T01:50:19;48.40;;;24.60;;
84521;SDS011;74758;50.066;20.008;2024-03-23T01:51:21;42.70;;;23.90;;
84521;SDS011;74758;50.066;20.008;2024-03-23T01:52:23;47.00;;;26.10;;
84521;SDS011;74758;50.066;20.008;2024-03-23T01:53:24;48.60;;;25.20;;
84521;SDS011;74758;50.066;20.008;2024-03-23T01:54:26;46.80;;;26.90;;
84521;SDS011;74758;50.066;20.008;2024-03-23T01:55:28;44.90;;;25.70;;
84521;SDS011;74758;50.066;20.008;2024-03-23T01:56:31;46.20;;;25.60;;
84521;SDS011;74758;50.066;20.008;2024-03-23T01:57:36;47.20;;;29.60;;
84521;SDS011;74758;50.066;20.008;2024-03-23T01:58:38;52.90;;;27.30;;
84521;SDS011;74758;50.066;20.008;2024-03-23T01:59:39;48.30;;;26.20;;
84521;SDS011;74758;50.066;20.008;2024-03-23T02:00:41;50.00;;;26.50;;
84521;SDS011;74758;50.066;20.008;2024-03-23T02:01:42;50.70;;;26.60;;
84521;SDS011;74758;50.066;20.008;2024-03-23T02:02:44;48.50;;;26.00;;
84521;SDS011;74758;50.066;20.008;2024-03-23T02:03:46;50.20;;;26.30;;
84521;SDS011;74758;50.066;20.008;2024-03-23T02:04:49;49.80;;;27.30;;
84521;SDS011;74758;50.066;20.008;2024-03-23T02:05:50;49.30;;;28.90;;
84521;SDS011;74758;50.066;20.008;2024-03-23T02:06:54;48.00;;;26.20;;
84521;SDS011;74758;50.066;20.008;2024-03-23T02:07:55;52.50;;;27.40;;
84521;SDS011;74758;50.066;20.008;2024-03-23T02:08:57;44.70;;;24.60;;
84521;SDS011;74758;50.066;20.008;2024-03-23T02:09:58;46.60;;;25.40;;
84521;SDS011;74758;50.066;20.008;2024-03-23T02:11:00;51.80;;;26.90;;
84521;SDS011;74758;50.066;20.008;2024-03-23T02:12:02;45.90;;;26.20;;
84521;SDS011;74758;50.066;20.008;2024-03-23T02:13:04;44.50;;;24.50;;
84521;SDS011;74758;50.066;20.008;2024-03-23T02:14:05;50.30;;;29.60;;
84521;SDS011;74758;50.066;20.008;2024-03-23T02:15:09;54.20;;;28.30;;
84521;SDS011;74758;50.066;20.008;2024-03-23T02:16:10;47.50;;;27.40;;
84521;SDS011;74758;50.066;20.008;2024-03-23T02:17:11;52.90;;;28.50;;
84521;SDS011;74758;50.066;20.008;2024-03-23T02:18:13;49.60;;;28.80;;
84521;SDS011;74758;50.066;20.008;2024-03-23T02:19:15;56.20;;;28.60;;
84521;SDS011;74758;50.066;20.008;2024-03-23T02:20:16;52.90;;;29.10;;
84521;SDS011;74758;50.066;20.008;2024-03-23T02:21:18;49.80;;;28.30;;
84521;SDS011;74758;50.066;20.008;2024-03-23T02:22:19;48.60;;;27.90;;
84521;SDS011;74758;50.066;20.008;2024-03-23T02:23:21;54.20;;;30.70;;
84521;SDS011;74758;50.066;20.008;2024-03-23T02:24:22;51.40;;;27.30;;
84521;SDS011;74758;50.066;20.008;2024-03-23T02:25:24;54.10;;;29.20;;
84521;SDS011;74758;50.066;20.008;2024-03-23T02:26:26;56.70;;;27.50;;
84521;SDS011;74758;50.066;20.008;2024-03-23T02:27:27;52.20;;;28.00;;
84521;SDS011;74758;50.066;20.008;2024-03-23T02:28:29;49.50;;;26.70;;
84521;SDS011;74758;50.066;20.008;2024-03-23T02:29:30;51.50;;;26.00;;
84521;SDS011;74758;50.066;20.008;2024-03-23T02:30:32;50.10;;;27.40;;
84521;SDS011;74758;50.066;20.008;2024-03-23T02:31:33;52.50;;;28.80;;
84521;SDS011;74758;50.066;20.008;2024-03-23T02:32:35;50.50;;;27.30;;
84521;SDS011;74758;50.066;20.008;2024-03-23T02:33:36;49.60;;;27.20;;
84521;SDS011;74758;50.066;20.008;2024-03-23T02:34:39;54.10;;;29.60;;
84521;SDS011;74758;50.066;20.008;2024-03-23T02:35:40;48.50;;;27.30;;
84521;SDS011;74758;50.066;20.008;2024-03-23T02:36:42;48.40;;;27.40;;
84521;SDS011;74758;50.066;20.008;2024-03-23T02:37:43;46.80;;;27.70;;
84521;SDS011;74758;50.066;20.008;2024-03-23T02:38:44;51.40;;;28.10;;
84521;SDS011;74758;50.066;20.008;2024-03-23T02:39:46;51.70;;;27.80;;
84521;SDS011;74758;50.066;20.008;2024-03-23T02:40:47;48.50;;;27.80;;
84521;SDS011;74758;50.066;20.008;2024-03-23T02:41:49;50.50;;;27.60;;
84521;SDS011;74758;50.066;20.008;2024-03-23T02:42:50;49.00;;;27.60;;
84521;SDS011;74758;50.066;20.008;2024-03-23T02:43:52;51.20;;;26.00;;
84521;SDS011;74758;50.066;20.008;2024-03-23T02:44:54;50.70;;;28.90;;
84521;SDS011;74758;50.066;20.008;2024-03-23T02:45:55;49.80;;;25.30;;
84521;SDS011;74758;50.066;20.008;2024-03-23T02:46:57;45.10;;;26.10;;
84521;SDS011;74758;50.066;20.008;2024-03-23T02:47:58;51.50;;;27.60;;
84521;SDS011;74758;50.066;20.008;2024-03-23T02:48:59;50.80;;;29.60;;
84521;SDS011;74758;50.066;20.008;2024-03-23T02:50:02;52.90;;;31.00;;
84521;SDS011;74758;50.066;20.008;2024-03-23T02:51:03;49.10;;;27.20;;
84521;SDS011;74758;50.066;20.008;2024-03-23T02:52:05;53.60;;;27.20;;
84521;SDS011;74758;50.066;20.008;2024-03-23T02:53:06;48.00;;;26.00;;
84521;SDS011;74758;50.066;20.008;2024-03-23T02:54:08;46.90;;;25.00;;
84521;SDS011;74758;50.066;20.008;2024-03-23T02:55:09;46.00;;;25.90;;
84521;SDS011;74758;50.066;20.008;2024-03-23T02:56:10;46.70;;;27.00;;
84521;SDS011;74758;50.066;20.008;2024-03-23T02:57:17;52.60;;;25.80;;
84521;SDS011;74758;50.066;20.008;2024-03-23T02:58:18;48.40;;;26.80;;
84521;SDS011;74758;50.066;20.008;2024-03-23T02:59:20;52.40;;;27.70;;
84521;SDS011;74758;50.066;20.008;2024-03-23T03:00:21;53.60;;;28.50;;
84521;SDS011;74758;50.066;20.008;2024-03-23T03:01:22;51.10;;;28.60;;
84521;SDS011;74758;50.066;20.008;2024-03-23T03:02:24;50.80;;;27.50;;
84521;SDS011;74758;50.066;20.008;2024-03-23T03:03:25;51.30;;;27.30;;
84521;SDS011;74758;50.066;20.008;2024-03-23T03:04:27;49.10;;;27.40;;
84521;SDS011;74758;50.066;20.008;2024-03-23T03:05:29;51.30;;;28.00;;
84521;SDS011;74758;50.066;20.008;2024-03-23T03:06:30;46.50;;;26.70;;
84521;SDS011;74758;50.066;20.008;2024-03-23T03:07:32;51.40;;;26.20;;
84521;SDS011;74758;50.066;20.008;2024-03-23T03:08:34;52.30;;;27.30;;
84521;SDS011;74758;50.066;20.008;2024-03-23T03:09:35;51.50;;;28.20;;
84521;SDS011;74758;50.066;20.008;2024-03-23T03:10:37;52.60;;;28.40;;
84521;SDS011;74758;50.066;20.008;2024-03-23T03:11:38;49.80;;;27.20;;
84521;SDS011;74758;50.066;20.008;2024-03-23T03:12:40;46.30;;;25.80;;
84521;SDS011;74758;50.066;20.008;2024-03-23T03:13:41;51.20;;;28.20;;
84521;SDS011;74758;50.066;20.008;2024-03-23T03:14:42;49.70;;;27.60;;
84521;SDS011;74758;50.066;20.008;2024-03-23T03:15:44;46.70;;;24.60;;
84521;SDS011;74758;50.066;20.008;2024-03-23T03:16:45;49.60;;;27.30;;
84521;SDS011;74758;50.066;20.008;2024-03-23T03:17:47;52.00;;;27.80;;
84521;SDS011;74758;50.066;20.008;2024-03-23T03:18:48;51.30;;;26.60;;
84521;SDS011;74758;50.066;20.008;2024-03-23T03:19:50;49.50;;;29.40;;
84521;SDS011;74758;50.066;20.008;2024-03-23T03:20:56;57.50;;;31.80;;
84521;SDS011;74758;50.066;20.008;2024-03-23T03:22:00;47.70;;;27.50;;
84521;SDS011;74758;50.066;20.008;2024-03-23T03:23:01;52.40;;;27.80;;
84521;SDS011;74758;50.066;20.008;2024-03-23T03:24:05;48.50;;;27.50;;
84521;SDS011;74758;50.066;20.008;2024-03-23T03:25:07;56.30;;;28.40;;
84521;SDS011;74758;50.066;20.008;2024-03-23T03:26:09;52.10;;;28.10;;
84521;SDS011;74758;50.066;20.008;2024-03-23T03:27:10;50.20;;;29.00;;
84521;SDS011;74758;50.066;20.008;2024-03-23T03:28:12;49.40;;;29.60;;
84521;SDS011;74758;50.066;20.008;2024-03-23T03:29:13;50.80;;;29.80;;
84521;SDS011;74758;50.066;20.008;2024-03-23T03:30:15;53.90;;;29.90;;
84521;SDS011;74758;50.066;20.008;2024-03-23T03:31:16;57.60;;;30.60;;
84521;SDS011;74758;50.066;20.008;2024-03-23T03:32:18;53.00;;;28.90;;
84521;SDS011;74758;50.066;20.008;2024-03-23T03:33:19;48.00;;;29.30;;
84521;SDS011;74758;50.066;20.008;2024-03-23T03:34:21;52.50;;;29.20;;
84521;SDS011;74758;50.066;20.008;2024-03-23T03:35:22;56.00;;;31.50;;
84521;SDS011;74758;50.066;20.008;2024-03-23T03:36:24;52.10;;;28.90;;
84521;SDS011;74758;50.066;20.008;2024-03-23T03:37:25;53.60;;;27.70;;
84521;SDS011;74758;50.066;20.008;2024-03-23T03:38:27;52.00;;;28.60;;
84521;SDS011;74758;50.066;20.008;2024-03-23T03:39:28;53.20;;;27.90;;
84521;SDS011;74758;50.066;20.008;2024-03-23T03:40:30;50.80;;;28.30;;
84521;SDS011;74758;50.066;20.008;2024-03-23T03:41:31;53.60;;;28.10;;
84521;SDS011;74758;50.066;20.008;2024-03-23T03:42:33;51.30;;;28.40;;
84521;SDS011;74758;50.066;20.008;2024-03-23T03:43:35;46.60;;;27.60;;
84521;SDS011;74758;50.066;20.008;2024-03-23T03:44:36;47.50;;;29.30;;
84521;SDS011;74758;50.066;20.008;2024-03-23T03:45:38;52.20;;;27.90;;
84521;SDS011;74758;50.066;20.008;2024-03-23T03:46:39;47.80;;;26.80;;
84521;SDS011;74758;50.066;20.008;2024-03-23T03:47:41;46.40;;;26.20;;
84521;SDS011;74758;50.066;20.008;2024-03-23T03:48:42;48.60;;;27.60;;
84521;SDS011;74758;50.066;20.008;2024-03-23T03:49:47;47.90;;;27.10;;
84521;SDS011;74758;50.066;20.008;2024-03-23T03:50:49;44.00;;;24.80;;
84521;SDS011;74758;50.066;20.008;2024-03-23T03:51:50;47.40;;;25.00;;
84521;SDS011;74758;50.066;20.008;2024-03-23T03:52:52;47.90;;;26.90;;
84521;SDS011;74758;50.066;20.008;2024-03-23T03:53:53;42.00;;;23.00;;
84521;SDS011;74758;50.066;20.008;2024-03-23T03:55:01;48.70;;;24.70;;
84521;SDS011;74758;50.066;20.008;2024-03-23T03:56:04;49.70;;;29.60;;
84521;SDS011;74758;50.066;20.008;2024-03-23T03:57:05;51.50;;;26.80;;
84521;SDS011;74758;50.066;20.008;2024-03-23T03:58:07;49.90;;;28.20;;
84521;SDS011;74758;50.066;20.008;2024-03-23T03:59:08;46.40;;;24.70;;
84521;SDS011;74758;50.066;20.008;2024-03-23T04:00:10;47.60;;;26.80;;
84521;SDS011;74758;50.066;20.008;2024-03-23T04:01:12;50.90;;;27.60;;
84521;SDS011;74758;50.066;20.008;2024-03-23T04:02:14;47.50;;;27.80;;
84521;SDS011;74758;50.066;20.008;2024-03-23T04:03:15;52.10;;;27.50;;
84521;SDS011;74758;50.066;20.008;2024-03-23T04:04:16;47.00;;;26.60;;
84521;SDS011;74758;50.066;20.008;2024-03-23T04:05:18;51.70;;;30.50;;
84521;SDS011;74758;50.066;20.008;2024-03-23T04:06:21;46.90;;;26.40;;
84521;SDS011;74758;50.066;20.008;2024-03-23T04:07:22;48.50;;;27.20;;
84521;SDS011;74758;50.066;20.008;2024-03-23T04:08:24;43.90;;;25.50;;
84521;SDS011;74758;50.066;20.008;2024-03-23T04:09:25;47.10;;;25.00;;
84521;SDS011;74758;50.066;20.008;2024-03-23T04:10:27;49.20;;;25.60;;
84521;SDS011;74758;50.066;20.008;2024-03-23T04:11:28;46.00;;;25.70;;
84521;SDS011;74758;50.066;20.008;2024-03-23T04:12:29;50.40;;;27.00;;
84521;SDS011;74758;50.066;20.008;2024-03-23T04:13:31;51.40;;;28.80;;
84521;SDS011;74758;50.066;20.008;2024-03-23T04:14:32;54.10;;;27.80;;
84521;SDS011;74758;50.066;20.008;2024-03-23T04:15:34;45.90;;;25.10;;
84521;SDS011;74758;50.066;20.008;2024-03-23T04:16:35;46.80;;;26.70;;
84521;SDS011;74758;50.066;20.008;2024-03-23T04:17:37;46.80;;;26.20;;
84521;SDS011;74758;50.066;20.008;2024-03-23T04:18:39;53.90;;;27.80;;
84521;SDS011;74758;50.066;20.008;2024-03-23T04:19:40;54.90;;;27.20;;
84521;SDS011;74758;50.066;20.008;2024-03-23T04:20:42;53.70;;;26.20;;
84521;SDS011;74758;50.066;20.008;2024-03-23T04:21:43;46.60;;;26.80;;
84521;SDS011;74758;50.066;20.008;2024-03-23T04:22:45;50.70;;;27.50;;
84521;SDS011;74758;50.066;20.008;2024-03-23T04:23:46;47.00;;;26.80;;
84521;SDS011;74758;50.066;20.008;2024-03-23T04:24:48;49.00;;;26.10;;
84521;SDS011;74758;50.066;20.008;2024-03-23T04:25:49;46.40;;;27.70;;
84521;SDS011;74758;50.066;20.008;2024-03-23T04:26:51;50.80;;;26.70;;
84521;SDS011;74758;50.066;20.008;2024-03-23T04:27:52;50.00;;;28.10;;
84521;SDS011;74758;50.066;20.008;2024-03-23T04:28:54;50.80;;;27.60;;
84521;SDS011;74758;50.066;20.008;2024-03-23T04:29:56;52.50;;;28.50;;
84521;SDS011;74758;50.066;20.008;2024-03-23T04:30:57;52.90;;;28.10;;
84521;SDS011;74758;50.066;20.008;2024-03-23T04:31:59;52.30;;;27.10;;
84521;SDS011;74758;50.066;20.008;2024-03-23T04:33:00;51.40;;;27.60;;
84521;SDS011;74758;50.066;20.008;2024-03-23T04:34:02;48.30;;;26.30;;
84521;SDS011;74758;50.066;20.008;2024-03-23T04:35:04;49.40;;;27.20;;
84521;SDS011;74758;50.066;20.008;2024-03-23T04:36:12;44.60;;;25.90;;
84521;SDS011;74758;50.066;20.008;2024-03-23T04:37:13;44.30;;;26.20;;
84521;SDS011;74758;50.066;20.008;2024-03-23T04:38:15;51.70;;;27.50;;
84521;SDS011;74758;50.066;20.008;2024-03-23T04:39:17;48.20;;;28.90;;
84521;SDS011;74758;50.066;20.008;2024-03-23T04:40:20;47.50;;;26.50;;
84521;SDS011;74758;50.066;20.008;2024-03-23T04:41:22;48.10;;;29.70;;
84521;SDS011;74758;50.066;20.008;2024-03-23T04:42:24;46.40;;;25.40;;
84521;SDS011;74758;50.066;20.008;2024-03-23T04:43:26;47.70;;;26.60;;
84521;SDS011;74758;50.066;20.008;2024-03-23T04:44:27;51.30;;;26.60;;
84521;SDS011;74758;50.066;20.008;2024-03-23T04:45:29;52.90;;;29.90;;
84521;SDS011;74758;50.066;20.008;2024-03-23T04:46:31;49.60;;;26.40;;
84521;SDS011;74758;50.066;20.008;2024-03-23T04:47:32;49.70;;;26.10;;
84521;SDS011;74758;50.066;20.008;2024-03-23T04:48:35;45.20;;;26.10;;
84521;SDS011;74758;50.066;20.008;2024-03-23T04:49:37;48.70;;;25.70;;
84521;SDS011;74758;50.066;20.008;2024-03-23T04:50:39;51.60;;;24.00;;
84521;SDS011;74758;50.066;20.008;2024-03-23T04:51:41;45.70;;;26.10;;
84521;SDS011;74758;50.066;20.008;2024-03-23T04:52:47;45.10;;;26.40;;
84521;SDS011;74758;50.066;20.008;2024-03-23T04:53:48;46.90;;;25.90;;
84521;SDS011;74758;50.066;20.008;2024-03-23T04:54:50;46.10;;;26.20;;
84521;SDS011;74758;50.066;20.008;2024-03-23T04:55:51;48.80;;;29.70;;
84521;SDS011;74758;50.066;20.008;2024-03-23T04:56:53;44.30;;;25.00;;
84521;SDS011;74758;50.066;20.008;2024-03-23T04:57:54;47.10;;;27.90;;
84521;SDS011;74758;50.066;20.008;2024-03-23T04:58:56;51.20;;;27.90;;
84521;SDS011;74758;50.066;20.008;2024-03-23T05:00:02;48.60;;;27.50;;
84521;SDS011;74758;50.066;20.008;2024-03-23T05:01:06;49.30;;;24.90;;
84521;SDS011;74758;50.066;20.008;2024-03-23T05:02:08;48.30;;;27.00;;
84521;SDS011;74758;50.066;20.008;2024-03-23T05:03:09;51.00;;;27.70;;
84521;SDS011;74758;50.066;20.008;2024-03-23T05:04:11;52.90;;;26.60;;
84521;SDS011;74758;50.066;20.008;2024-03-23T05:05:12;51.40;;;29.50;;
84521;SDS011;74758;50.066;20.008;2024-03-23T05:06:14;53.20;;;29.40;;
84521;SDS011;74758;50.066;20.008;2024-03-23T05:07:15;53.20;;;28.40;;
84521;SDS011;74758;50.066;20.008;2024-03-23T05:08:17;50.80;;;26.50;;
84521;SDS011;74758;50.066;20.008;2024-03-23T05:09:18;51.80;;;27.30;;
84521;SDS011;74758;50.066;20.008;2024-03-23T05:10:21;48.00;;;25.90;;
84521;SDS011;74758;50.066;20.008;2024-03-23T05:11:22;54.80;;;27.20;;
84521;SDS011;74758;50.066;20.008;2024-03-23T05:12:24;55.60;;;30.00;;
84521;SDS011;74758;50.066;20.008;2024-03-23T05:13:25;54.70;;;28.40;;
84521;SDS011;74758;50.066;20.008;2024-03-23T05:14:27;48.10;;;28.70;;
84521;SDS011;74758;50.066;20.008;2024-03-23T05:15:28;60.80;;;34.00;;
84521;SDS011;74758;50.066;20.008;2024-03-23T05:16:31;54.00;;;29.60;;
84521;SDS011;74758;50.066;20.008;2024-03-23T05:17:32;52.90;;;30.40;;
84521;SDS011;74758;50.066;20.008;2024-03-23T05:18:34;53.00;;;28.80;;
84521;SDS011;74758;50.066;20.008;2024-03-23T05:19:36;45.60;;;27.10;;
84521;SDS011;74758;50.066;20.008;2024-03-23T05:20:37;56.70;;;31.30;;
84521;SDS011;74758;50.066;20.008;2024-03-23T05:21:39;53.10;;;27.60;;
84521;SDS011;74758;50.066;20.008;2024-03-23T05:22:40;51.50;;;29.30;;
84521;SDS011;74758;50.066;20.008;2024-03-23T05:23:42;48.30;;;27.60;;
84521;SDS011;74758;50.066;20.008;2024-03-23T05:24:45;48.70;;;28.90;;
84521;SDS011;74758;50.066;20.008;2024-03-23T05:25:46;50.50;;;29.30;;
84521;SDS011;74758;50.066;20.008;2024-03-23T05:26:48;54.90;;;28.80;;
84521;SDS011;74758;50.066;20.008;2024-03-23T05:27:50;50.90;;;27.90;;
84521;SDS011;74758;50.066;20.008;2024-03-23T05:28:51;51.00;;;29.20;;
84521;SDS011;74758;50.066;20.008;2024-03-23T05:29:53;52.70;;;33.80;;
84521;SDS011;74758;50.066;20.008;2024-03-23T05:30:54;49.90;;;27.50;;
84521;SDS011;74758;50.066;20.008;2024-03-23T05:31:56;53.20;;;28.30;;
84521;SDS011;74758;50.066;20.008;2024-03-23T05:32:58;49.40;;;27.00;;
84521;SDS011;74758;50.066;20.008;2024-03-23T05:33:59;52.90;;;29.20;;
84521;SDS011;74758;50.066;20.008;2024-03-23T05:35:01;53.40;;;28.50;;
84521;SDS011;74758;50.066;20.008;2024-03-23T05:36:02;52.20;;;29.50;;
84521;SDS011;74758;50.066;20.008;2024-03-23T05:37:05;52.70;;;28.90;;
84521;SDS011;74758;50.066;20.008;2024-03-23T05:38:08;55.60;;;29.80;;
84521;SDS011;74758;50.066;20.008;2024-03-23T05:39:09;51.60;;;29.20;;
84521;SDS011;74758;50.066;20.008;2024-03-23T05:40:11;52.90;;;29.90;;
84521;SDS011;74758;50.066;20.008;2024-03-23T05:41:14;53.40;;;28.20;;
84521;SDS011;74758;50.066;20.008;2024-03-23T05:42:18;50.60;;;29.00;;
84521;SDS011;74758;50.066;20.008;2024-03-23T05:43:20;46.20;;;26.70;;
84521;SDS011;74758;50.066;20.008;2024-03-23T05:44:22;55.70;;;28.80;;
84521;SDS011;74758;50.066;20.008;2024-03-23T05:45:23;52.70;;;30.90;;
84521;SDS011;74758;50.066;20.008;2024-03-23T05:46:25;50.90;;;29.50;;
84521;SDS011;74758;50.066;20.008;2024-03-23T05:47:26;56.20;;;30.60;;
84521;SDS011;74758;50.066;20.008;2024-03-23T05:48:28;51.20;;;29.90;;
84521;SDS011;74758;50.066;20.008;2024-03-23T05:49:31;54.30;;;29.00;;
84521;SDS011;74758;50.066;20.008;2024-03-23T05:50:33;51.10;;;28.80;;
84521;SDS011;74758;50.066;20.008;2024-03-23T05:51:34;49.50;;;29.10;;
84521;SDS011;74758;50.066;20.008;2024-03-23T05:52:36;55.90;;;29.40;;
84521;SDS011;74758;50.066;20.008;2024-03-23T05:53:37;53.30;;;28.70;;
84521;SDS011;74758;50.066;20.008;2024-03-23T05:54:38;52.80;;;28.90;;
84521;SDS011;74758;50.066;20.008;2024-03-23T05:55:40;53.90;;;29.70;;
84521;SDS011;74758;50.066;20.008;2024-03-23T05:56:41;56.50;;;30.30;;
84521;SDS011;74758;50.066;20.008;2024-03-23T05:57:43;53.30;;;29.20;;
84521;SDS011;74758;50.066;20.008;2024-03-23T05:58:45;57.20;;;30.90;;
84521;SDS011;74758;50.066;20.008;2024-03-23T05:59:47;55.90;;;30.50;;
84521;SDS011;74758;50.066;20.008;2024-03-23T06:00:49;59.00;;;31.90;;
84521;SDS011;74758;50.066;20.008;2024-03-23T06:01:50;61.20;;;30.00;;
84521;SDS011;74758;50.066;20.008;2024-03-23T06:02:52;57.90;;;31.10;;
84521;SDS011;74758;50.066;20.008;2024-03-23T06:03:53;55.70;;;30.50;;
84521;SDS011;74758;50.066;20.008;2024-03-23T06:04:54;58.70;;;33.40;;
84521;SDS011;74758;50.066;20.008;2024-03-23T06:05:56;58.80;;;30.30;;
84521;SDS011;74758;50.066;20.008;2024-03-23T06:06:57;52.40;;;30.70;;
84521;SDS011;74758;50.066;20.008;2024-03-23T06:07:59;55.00;;;30.90;;
84521;SDS011;74758;50.066;20.008;2024-03-23T06:09:02;52.80;;;29.00;;
84521;SDS011;74758;50.066;20.008;2024-03-23T06:10:07;51.70;;;28.10;;
84521;SDS011;74758;50.066;20.008;2024-03-23T06:11:09;57.30;;;28.40;;
84521;SDS011;74758;50.066;20.008;2024-03-23T06:12:11;54.90;;;31.70;;
84521;SDS011;74758;50.066;20.008;2024-03-23T06:13:12;56.60;;;31.60;;
84521;SDS011;74758;50.066;20.008;2024-03-23T06:14:14;51.20;;;30.00;;
84521;SDS011;74758;50.066;20.008;2024-03-23T06:15:16;58.40;;;31.90;;
84521;SDS011;74758;50.066;20.008;2024-03-23T06:16:17;59.60;;;31.40;;
84521;SDS011;74758;50.066;20.008;2024-03-23T06:17:24;58.60;;;31.70;;
84521;SDS011;74758;50.066;20.008;2024-03-23T06:18:25;59.80;;;33.10;;
84521;SDS011;74758;50.066;20.008;2024-03-23T06:19:27;59.90;;;32.90;;
84521;SDS011;74758;50.066;20.008;2024-03-23T06:20:29;60.00;;;32.30;;
84521;SDS011;74758;50.066;20.008;2024-03-23T06:21:30;60.20;;;32.70;;
84521;SDS011;74758;50.066;20.008;2024-03-23T06:22:32;59.20;;;32.60;;
84521;SDS011;74758;50.066;20.008;2024-03-23T06:23:34;56.90;;;32.70;;
84521;SDS011;74758;50.066;20.008;2024-03-23T06:24:36;57.80;;;33.20;;
84521;SDS011;74758;50.066;20.008;2024-03-23T06:25:37;56.80;;;34.00;;
84521;SDS011;74758;50.066;20.008;2024-03-23T06:26:39;55.00;;;30.50;;
84521;SDS011;74758;50.066;20.008;2024-03-23T06:27:40;63.00;;;32.40;;
84521;SDS011;74758;50.066;20.008;2024-03-23T06:28:42;58.40;;;32.90;;
84521;SDS011;74758;50.066;20.008;2024-03-23T06:29:43;63.40;;;33.70;;
84521;SDS011;74758;50.066;20.008;2024-03-23T06:30:45;62.50;;;33.70;;
84521;SDS011;74758;50.066;20.008;2024-03-23T06:31:52;60.00;;;31.90;;
84521;SDS011;74758;50.066;20.008;2024-03-23T06:32:55;60.10;;;32.30;;
84521;SDS011;74758;50.066;20.008;2024-03-23T06:33:57;63.70;;;37.60;;
84521;SDS011;74758;50.066;20.008;2024-03-23T06:34:58;64.60;;;33.10;;
84521;SDS011;74758;50.066;20.008;2024-03-23T06:35:59;63.50;;;33.40;;
84521;SDS011;74758;50.066;20.008;2024-03-23T06:37:01;60.90;;;33.30;;
84521;SDS011;74758;50.066;20.008;2024-03-23T06:38:04;66.50;;;35.10;;
84521;SDS011;74758;50.066;20.008;2024-03-23T06:39:05;57.70;;;31.40;;
84521;SDS011;74758;50.066;20.008;2024-03-23T06:40:07;62.40;;;35.50;;
84521;SDS011;74758;50.066;20.008;2024-03-23T06:41:10;63.20;;;33.60;;
84521;SDS011;74758;50.066;20.008;2024-03-23T06:42:12;66.50;;;33.60;;
84521;SDS011;74758;50.066;20.008;2024-03-23T06:43:17;63.20;;;33.40;;
84521;SDS011;74758;50.066;20.008;2024-03-23T06:44:18;56.00;;;32.20;;
84521;SDS011;74758;50.066;20.008;2024-03-23T06:45:20;61.10;;;33.40;;
84521;SDS011;74758;50.066;20.008;2024-03-23T06:46:24;57.70;;;31.60;;
84521;SDS011;74758;50.066;20.008;2024-03-23T06:47:25;61.60;;;33.00;;
84521;SDS011;74758;50.066;20.008;2024-03-23T06:48:27;57.70;;;31.90;;
84521;SDS011;74758;50.066;20.008;2024-03-23T06:49:28;60.90;;;34.10;;